createdAt,value
2022-10-02T00:00:01.820Z,996.2
2022-10-02T00:01:04.071Z,996.2
2022-10-02T00:02:06.178Z,996.2
2022-10-02T00:03:08.196Z,996.2
2022-10-02T00:04:10.241Z,996.2
2022-10-02T00:05:12.337Z,996.2
2022-10-02T00:08:03.838Z,996.3
2022-10-02T00:09:06.237Z,996.3
2022-10-02T00:10:08.536Z,996.3
2022-10-02T00:11:11.249Z,996.4
2022-10-02T00:12:13.004Z,996.4
2022-10-02T00:13:15.657Z,996.4
2022-10-02T00:14:18.121Z,996.4
2022-10-02T00:15:20.649Z,996.4
2022-10-02T00:16:21.919Z,996.4
2022-10-02T00:17:24.277Z,996.5
2022-10-02T00:18:26.297Z,996.5
2022-10-02T00:19:28.296Z,996.5
2022-10-02T00:20:31.259Z,996.5
2022-10-02T00:21:33.014Z,996.5
2022-10-02T00:22:35.037Z,996.6
2022-10-02T00:23:37.060Z,996.5
2022-10-02T00:24:39.637Z,996.5
2022-10-02T00:25:42.619Z,996.5
2022-10-02T00:26:45.899Z,996.6
2022-10-02T00:27:48.169Z,996.6
2022-10-02T00:28:50.555Z,996.5
2022-10-02T00:29:53.743Z,996.6
2022-10-02T00:30:56.179Z,996.5
2022-10-02T00:31:58.461Z,996.5
2022-10-02T00:33:01.156Z,996.5
2022-10-02T00:34:03.236Z,996.5
2022-10-02T00:35:06.202Z,996.5
2022-10-02T00:36:08.150Z,996.5
2022-10-02T00:37:10.196Z,996.6
2022-10-02T00:38:12.356Z,996.5
2022-10-02T00:39:14.290Z,996.5
2022-10-02T00:40:16.998Z,996.6
2022-10-02T00:41:19.156Z,996.6
2022-10-02T00:42:21.256Z,996.6
2022-10-02T00:43:23.357Z,996.6
2022-10-02T00:44:26.497Z,996.6
2022-10-02T00:45:28.569Z,996.6
2022-10-02T00:46:31.422Z,996.6
2022-10-02T00:47:34.415Z,996.6
2022-10-02T00:48:37.196Z,996.6
2022-10-02T00:49:39.182Z,996.6
2022-10-02T00:50:41.217Z,996.6
2022-10-02T00:51:43.100Z,996.6
2022-10-02T00:52:45.334Z,996.6
2022-10-02T00:53:47.179Z,996.6
2022-10-02T00:54:49.537Z,996.6
2022-10-02T00:55:52.357Z,996.6
2022-10-02T00:56:56.096Z,996.7
2022-10-02T00:57:57.956Z,996.8
2022-10-02T00:59:00.517Z,996.7
2022-10-02T01:00:03.098Z,996.7
2022-10-02T01:04:06.182Z,996.8
2022-10-02T01:05:07.857Z,996.8
2022-10-02T01:06:09.016Z,996.8
2022-10-02T01:07:11.215Z,996.8
2022-10-02T01:08:13.257Z,996.8
2022-10-02T01:09:15.076Z,996.9
2022-10-02T01:10:17.336Z,996.9
2022-10-02T01:11:19.156Z,996.9
2022-10-02T01:12:21.316Z,996.9
2022-10-02T01:13:23.433Z,996.9
2022-10-02T01:14:26.217Z,996.9
2022-10-02T01:15:28.236Z,996.9
2022-10-02T01:16:30.330Z,996.9
2022-10-02T01:17:32.177Z,996.9
2022-10-02T01:18:34.216Z,996.9
2022-10-02T01:19:36.399Z,996.9
2022-10-02T01:20:38.513Z,996.9
2022-10-02T01:21:40.957Z,996.9
2022-10-02T01:22:43.137Z,996.9
2022-10-02T01:23:45.086Z,997
2022-10-02T01:24:47.197Z,996.9
2022-10-02T01:25:50.217Z,996.9
2022-10-02T01:26:52.110Z,996.9
2022-10-02T01:27:54.067Z,997
2022-10-02T01:28:56.404Z,997
2022-10-02T01:29:59.145Z,997
2022-10-02T01:31:01.336Z,997
2022-10-02T01:32:03.088Z,997.1
2022-10-02T01:33:05.936Z,997.1
2022-10-02T01:34:08.018Z,997.1
2022-10-02T01:35:10.100Z,997.1
2022-10-02T01:36:12.297Z,997.1
2022-10-02T01:37:14.157Z,997.1
2022-10-02T01:38:16.177Z,997.1
2022-10-02T01:39:18.016Z,997.2
2022-10-02T01:40:20.156Z,997.2
2022-10-02T01:41:22.537Z,997.2
2022-10-02T01:42:24.257Z,997.2
2022-10-02T01:43:26.216Z,997.2
2022-10-02T01:44:27.997Z,997.2
2022-10-02T01:45:30.459Z,997.2
2022-10-02T01:46:33.185Z,997.2
2022-10-02T01:47:34.996Z,997.2
2022-10-02T01:48:37.036Z,997.3
2022-10-02T01:49:39.116Z,997.3
2022-10-02T01:50:41.206Z,997.3
2022-10-02T01:51:43.457Z,997.3
2022-10-02T01:52:46.196Z,997.3
2022-10-02T01:53:48.329Z,997.3
2022-10-02T01:54:51.016Z,997.3
2022-10-02T01:55:53.217Z,997.3
2022-10-02T01:56:55.056Z,997.4
2022-10-02T01:57:57.076Z,997.4
2022-10-02T01:58:59.577Z,997.3
2022-10-02T02:00:02.298Z,997.3
2022-10-02T02:01:04.240Z,997.4
2022-10-02T02:02:06.119Z,997.4
2022-10-02T02:03:08.164Z,997.4
2022-10-02T02:04:10.145Z,997.4
2022-10-02T02:05:12.346Z,997.5
2022-10-02T02:06:14.300Z,997.5
2022-10-02T02:07:16.397Z,997.5
2022-10-02T02:08:19.539Z,997.5
2022-10-02T02:09:21.037Z,997.5
2022-10-02T02:10:23.696Z,997.5
2022-10-02T02:11:26.216Z,997.6
2022-10-02T02:12:28.182Z,997.6
2022-10-02T02:13:31.336Z,997.1
2022-10-02T02:14:34.356Z,997.6
2022-10-02T02:15:36.237Z,997.7
2022-10-02T02:16:38.410Z,997.7
2022-10-02T02:17:40.116Z,997.7
2022-10-02T02:18:42.336Z,997.7
2022-10-02T02:19:44.457Z,997.8
2022-10-02T02:20:47.216Z,997.8
2022-10-02T02:21:48.880Z,997.8
2022-10-02T02:22:51.057Z,997.8
2022-10-02T02:23:53.077Z,997.8
2022-10-02T02:24:55.377Z,997.8
2022-10-02T02:25:57.016Z,997.8
2022-10-02T02:26:59.138Z,997.9
2022-10-02T02:28:01.142Z,997.9
2022-10-02T02:29:03.317Z,997.9
2022-10-02T02:30:05.717Z,997.9
2022-10-02T02:31:08.397Z,998
2022-10-02T02:32:10.264Z,997.9
2022-10-02T02:33:12.036Z,998
2022-10-02T02:34:16.657Z,998
2022-10-02T02:35:18.079Z,998
2022-10-02T02:36:20.216Z,998
2022-10-02T02:37:23.563Z,998
2022-10-02T02:38:25.156Z,997.9
2022-10-02T02:39:27.111Z,998
2022-10-02T02:40:29.057Z,998
2022-10-02T02:41:31.337Z,998.1
2022-10-02T02:42:32.957Z,998.1
2022-10-02T02:43:35.179Z,998.1
2022-10-02T02:44:37.139Z,998.1
2022-10-02T02:45:39.236Z,998.1
2022-10-02T02:46:41.157Z,998.1
2022-10-02T02:47:43.148Z,998.1
2022-10-02T02:48:45.197Z,998.1
2022-10-02T02:49:47.336Z,998.1
2022-10-02T02:50:49.257Z,998.1
2022-10-02T02:51:50.937Z,998.1
2022-10-02T02:52:53.082Z,998.2
2022-10-02T02:53:55.657Z,998.1
2022-10-02T02:54:57.196Z,998.2
2022-10-02T02:55:59.098Z,998.1
2022-10-02T02:57:01.338Z,998.1
2022-10-02T02:58:04.058Z,998.1
2022-10-02T02:59:06.137Z,998.2
2022-10-02T03:00:08.196Z,998.1
2022-10-02T03:01:10.545Z,998.1
2022-10-02T03:02:13.315Z,998.1
2022-10-02T03:03:16.086Z,998.1
2022-10-02T03:04:18.417Z,998.2
2022-10-02T03:05:20.257Z,998.1
2022-10-02T03:06:22.237Z,998.2
2022-10-02T03:07:24.594Z,998.1
2022-10-02T03:08:26.327Z,998.2
2022-10-02T03:09:28.437Z,998.2
2022-10-02T03:10:31.257Z,998.2
2022-10-02T03:11:33.437Z,998.2
2022-10-02T03:12:35.256Z,998.3
2022-10-02T03:13:37.237Z,998.3
2022-10-02T03:14:39.276Z,998.3
2022-10-02T03:15:41.362Z,998.3
2022-10-02T03:16:43.119Z,998.3
2022-10-02T03:17:44.978Z,998.3
2022-10-02T03:18:47.177Z,998.3
2022-10-02T03:19:49.256Z,998.3
2022-10-02T03:20:51.137Z,998.4
2022-10-02T03:21:53.317Z,998.3
2022-10-02T03:22:55.217Z,998.3
2022-10-02T03:23:57.787Z,998.4
2022-10-02T03:25:00.401Z,998.3
2022-10-02T03:26:02.438Z,998.4
2022-10-02T03:27:06.997Z,998.4
2022-10-02T03:28:09.372Z,998.4
2022-10-02T03:29:12.430Z,998.4
2022-10-02T03:30:15.324Z,998.4
2022-10-02T03:31:17.360Z,998.4
2022-10-02T03:32:19.101Z,998.4
2022-10-02T03:33:21.076Z,998.5
2022-10-02T03:34:23.418Z,998.4
2022-10-02T03:35:25.338Z,998.5
2022-10-02T03:36:27.310Z,998.6
2022-10-02T03:37:28.896Z,998.5
2022-10-02T03:38:30.172Z,998.5
2022-10-02T03:39:32.204Z,998.5
2022-10-02T03:40:34.199Z,998.5
2022-10-02T03:41:36.175Z,998.5
2022-10-02T03:42:38.117Z,998.6
2022-10-02T03:43:40.225Z,998.5
2022-10-02T03:44:42.026Z,998.4
2022-10-02T03:45:51.233Z,998.5
2022-10-02T03:46:46.209Z,998.5
2022-10-02T03:47:48.165Z,998.5
2022-10-02T03:48:50.217Z,998.6
2022-10-02T03:49:52.066Z,998.5
2022-10-02T03:50:54.397Z,998.6
2022-10-02T03:51:56.184Z,998.6
2022-10-02T03:52:58.078Z,998.6
2022-10-02T03:54:00.218Z,998.6
2022-10-02T03:55:02.141Z,998.6
2022-10-02T03:56:04.187Z,998.6
2022-10-02T03:57:06.318Z,998.6
2022-10-02T03:58:08.374Z,998.6
2022-10-02T03:59:11.216Z,998.6
2022-10-02T04:00:14.076Z,998.5
2022-10-02T04:01:16.427Z,998.6
2022-10-02T04:02:18.196Z,998.6
2022-10-02T04:03:20.062Z,998.7
2022-10-02T04:04:22.356Z,998.6
2022-10-02T04:05:24.172Z,998.6
2022-10-02T04:06:26.196Z,998.6
2022-10-02T04:07:28.302Z,998.6
2022-10-02T04:08:30.417Z,998.6
2022-10-02T04:09:32.377Z,998.6
2022-10-02T04:10:35.207Z,998.6
2022-10-02T04:11:37.220Z,998.6
2022-10-02T04:12:39.318Z,998.6
2022-10-02T04:13:41.069Z,998.6
2022-10-02T04:14:43.360Z,998.6
2022-10-02T04:15:45.127Z,998.6
2022-10-02T04:16:47.437Z,998.7
2022-10-02T04:17:49.296Z,998.7
2022-10-02T04:18:51.338Z,998.6
2022-10-02T04:19:53.236Z,998.6
2022-10-02T04:20:55.225Z,998.7
2022-10-02T04:21:57.205Z,998.6
2022-10-02T04:22:59.276Z,998.6
2022-10-02T04:24:01.508Z,998.7
2022-10-02T04:25:03.276Z,998.7
2022-10-02T04:26:05.439Z,998.7
2022-10-02T04:27:07.293Z,998.7
2022-10-02T04:28:09.448Z,998.8
2022-10-02T04:29:12.597Z,998.8
2022-10-02T04:30:15.097Z,998.8
2022-10-02T04:31:17.211Z,998.8
2022-10-02T04:32:19.204Z,998.8
2022-10-02T04:33:21.136Z,998.8
2022-10-02T04:34:23.102Z,998.8
2022-10-02T04:35:25.056Z,998.8
2022-10-02T04:36:27.209Z,998.9
2022-10-02T04:37:29.276Z,998.9
2022-10-02T04:38:31.197Z,999
2022-10-02T04:39:33.377Z,998.9
2022-10-02T04:40:35.129Z,998.9
2022-10-02T04:41:37.359Z,998.9
2022-10-02T04:42:39.059Z,998.9
2022-10-02T04:43:41.217Z,999
2022-10-02T04:44:43.296Z,998.9
2022-10-02T04:45:45.080Z,998.9
2022-10-02T04:46:47.158Z,999
2022-10-02T04:47:49.336Z,998.9
2022-10-02T04:48:51.356Z,998.9
2022-10-02T04:49:53.077Z,999
2022-10-02T04:50:55.316Z,999
2022-10-02T04:51:57.296Z,999
2022-10-02T04:52:59.496Z,999
2022-10-02T04:54:01.376Z,999
2022-10-02T04:55:03.338Z,999
2022-10-02T04:56:05.165Z,999.1
2022-10-02T04:57:07.240Z,999.1
2022-10-02T04:58:09.176Z,999
2022-10-02T04:59:11.596Z,999.1
2022-10-02T05:00:14.163Z,999.1
2022-10-02T05:01:17.721Z,999.1
2022-10-02T05:02:20.384Z,999
2022-10-02T05:03:22.636Z,999
2022-10-02T05:04:25.356Z,999.1
2022-10-02T05:05:27.365Z,999
2022-10-02T05:06:29.324Z,999.1
2022-10-02T05:07:32.176Z,999.1
2022-10-02T05:08:34.489Z,999.1
2022-10-02T05:09:36.316Z,999
2022-10-02T05:10:41.358Z,999.1
2022-10-02T05:11:44.303Z,999.1
2022-10-02T05:12:46.361Z,999
2022-10-02T05:13:48.598Z,999.1
2022-10-02T05:14:51.246Z,999.1
2022-10-02T05:15:53.215Z,999.1
2022-10-02T05:16:55.244Z,999.1
2022-10-02T05:17:57.456Z,999.1
2022-10-02T05:19:00.097Z,999
2022-10-02T05:20:02.056Z,999.1
2022-10-02T05:21:04.457Z,999.1
2022-10-02T05:22:06.316Z,999.1
2022-10-02T05:23:08.622Z,999
2022-10-02T05:24:11.345Z,999
2022-10-02T05:25:13.276Z,999
2022-10-02T05:26:15.288Z,999
2022-10-02T05:27:17.445Z,999
2022-10-02T05:28:19.894Z,999
2022-10-02T05:29:22.657Z,999.1
2022-10-02T05:30:25.296Z,999.1
2022-10-02T05:31:28.439Z,999.1
2022-10-02T05:32:30.463Z,999.1
2022-10-02T05:33:33.561Z,999.1
2022-10-02T05:34:36.356Z,999.1
2022-10-02T05:35:39.303Z,999.1
2022-10-02T05:36:42.705Z,999.1
2022-10-02T05:37:45.701Z,999.1
2022-10-02T05:38:47.856Z,999.1
2022-10-02T05:39:50.557Z,999.1
2022-10-02T05:40:52.276Z,999.1
2022-10-02T05:41:54.298Z,999.2
2022-10-02T05:42:56.417Z,999.2
2022-10-02T05:43:58.299Z,999.2
2022-10-02T05:45:00.201Z,999.1
2022-10-02T05:46:02.137Z,999.1
2022-10-02T05:47:04.448Z,999.2
2022-10-02T05:48:06.256Z,999.2
2022-10-02T05:49:08.557Z,999.2
2022-10-02T05:50:11.316Z,999.2
2022-10-02T05:51:13.318Z,999.2
2022-10-02T05:52:15.516Z,999.2
2022-10-02T05:53:17.437Z,999.2
2022-10-02T05:54:19.737Z,999.2
2022-10-02T05:55:21.516Z,999.2
2022-10-02T05:56:23.280Z,999.2
2022-10-02T05:57:25.509Z,999.2
2022-10-02T05:58:28.297Z,999.2
2022-10-02T05:59:30.569Z,999.2
2022-10-02T06:00:32.876Z,999.2
2022-10-02T06:01:35.749Z,999.2
2022-10-02T06:02:39.549Z,999.2
2022-10-02T06:03:41.594Z,999.2
2022-10-02T06:04:43.577Z,999.2
2022-10-02T06:05:46.993Z,999.2
2022-10-02T06:06:49.556Z,999.2
2022-10-02T06:07:52.477Z,999.2
2022-10-02T06:08:55.541Z,999.2
2022-10-02T06:09:57.396Z,999.3
2022-10-02T06:10:59.656Z,999.3
2022-10-02T06:12:02.537Z,999.3
2022-10-02T06:13:05.277Z,999.3
2022-10-02T06:14:07.416Z,999.3
2022-10-02T06:15:10.480Z,999.3
2022-10-02T06:16:12.419Z,999.3
2022-10-02T06:17:15.356Z,999.3
2022-10-02T06:18:17.297Z,999.4
2022-10-02T06:19:19.537Z,999.4
2022-10-02T06:20:21.436Z,999.3
2022-10-02T06:21:23.463Z,999.3
2022-10-02T06:22:25.364Z,999.3
2022-10-02T06:23:28.516Z,999.3
2022-10-02T06:24:30.585Z,999.3
2022-10-02T06:25:32.375Z,999.3
2022-10-02T06:26:35.634Z,999.3
2022-10-02T06:27:37.537Z,999.3
2022-10-02T06:28:39.776Z,999.3
2022-10-02T06:29:42.537Z,999.3
2022-10-02T06:30:44.661Z,999.3
2022-10-02T06:31:46.314Z,999.4
2022-10-02T06:32:48.619Z,999.4
2022-10-02T06:33:51.710Z,999.4
2022-10-02T06:34:54.417Z,999.4
2022-10-02T06:35:57.699Z,999.4
2022-10-02T06:37:00.656Z,999.3
2022-10-02T06:38:02.242Z,999.4
2022-10-02T06:39:04.437Z,999.4
2022-10-02T06:40:07.518Z,999.4
2022-10-02T06:41:10.563Z,999.4
2022-10-02T06:42:12.264Z,999.5
2022-10-02T06:43:15.537Z,999.5
2022-10-02T06:44:17.150Z,999.5
2022-10-02T06:45:19.260Z,999.5
2022-10-02T06:46:22.141Z,999.5
2022-10-02T06:47:24.277Z,998.9
2022-10-02T06:48:26.276Z,999.4
2022-10-02T06:49:28.536Z,999.5
2022-10-02T06:50:30.736Z,999.5
2022-10-02T06:51:32.156Z,999.5
2022-10-02T06:52:37.889Z,999.4
2022-10-02T06:53:36.397Z,999.5
2022-10-02T06:54:38.656Z,999.4
2022-10-02T06:55:41.161Z,999.4
2022-10-02T06:56:43.514Z,999.4
2022-10-02T06:57:45.341Z,999.4
2022-10-02T06:58:47.837Z,999.4
2022-10-02T06:59:50.437Z,999.3
2022-10-02T07:00:54.088Z,999.4
2022-10-02T07:01:57.379Z,999.3
2022-10-02T07:02:58.357Z,999.4
2022-10-02T07:04:00.316Z,999.5
2022-10-02T07:05:02.056Z,999.5
2022-10-02T07:06:04.659Z,999.4
2022-10-02T07:07:07.296Z,999.4
2022-10-02T07:08:09.356Z,999.4
2022-10-02T07:09:11.356Z,999.4
2022-10-02T07:10:13.516Z,999.4
2022-10-02T07:11:16.315Z,999.5
2022-10-02T07:12:18.579Z,999.5
2022-10-02T07:13:20.437Z,999.4
2022-10-02T07:14:22.418Z,999.5
2022-10-02T07:15:25.376Z,999.5
2022-10-02T07:16:27.762Z,999.5
2022-10-02T07:17:29.558Z,999.4
2022-10-02T07:18:31.478Z,999.5
2022-10-02T07:19:34.496Z,999.5
2022-10-02T07:20:37.350Z,999.5
2022-10-02T07:21:40.500Z,999.5
2022-10-02T07:22:47.324Z,999.5
2022-10-02T07:23:52.353Z,999.6
2022-10-02T07:24:54.639Z,999.5
2022-10-02T07:25:56.534Z,999.5
2022-10-02T07:26:59.679Z,999.6
2022-10-02T07:28:02.948Z,999.6
2022-10-02T07:29:05.436Z,999.6
2022-10-02T07:30:07.818Z,999.5
2022-10-02T07:31:10.517Z,999.6
2022-10-02T07:32:14.056Z,999.6
2022-10-02T07:33:16.601Z,999.5
2022-10-02T07:34:19.534Z,999.6
2022-10-02T07:35:21.447Z,999.5
2022-10-02T07:36:23.194Z,999.5
2022-10-02T07:37:25.256Z,999.5
2022-10-02T07:38:28.436Z,999.5
2022-10-02T07:39:30.927Z,999.5
2022-10-02T07:40:33.273Z,999.5
2022-10-02T07:41:35.042Z,999.6
2022-10-02T07:42:37.377Z,999.6
2022-10-02T07:43:39.117Z,999.7
2022-10-02T07:44:41.482Z,999.7
2022-10-02T07:45:43.569Z,999.7
2022-10-02T07:46:45.572Z,999.7
2022-10-02T07:47:48.176Z,999.7
2022-10-02T07:48:50.480Z,999.7
2022-10-02T07:49:52.516Z,999.7
2022-10-02T07:50:55.466Z,999.7
2022-10-02T07:51:56.856Z,999
2022-10-02T07:52:59.721Z,999.5
2022-10-02T07:54:01.777Z,999.7
2022-10-02T07:55:04.679Z,999.7
2022-10-02T07:59:36.639Z,999.8
2022-10-02T08:00:40.151Z,999.8
2022-10-02T08:01:43.745Z,999.8
2022-10-02T08:02:46.626Z,999.7
2022-10-02T08:03:48.838Z,999.7
2022-10-02T08:04:51.382Z,999.7
2022-10-02T08:05:53.798Z,999.7
2022-10-02T08:06:56.317Z,999.7
2022-10-02T08:07:58.479Z,999.6
2022-10-02T08:09:02.017Z,999.6
2022-10-02T08:10:04.237Z,999.6
2022-10-02T08:11:07.758Z,999.7
2022-10-02T08:12:10.858Z,999.7
2022-10-02T08:13:13.583Z,999.7
2022-10-02T08:14:16.517Z,999.7
2022-10-02T08:15:18.978Z,999.7
2022-10-02T08:16:21.763Z,999.7
2022-10-02T08:17:24.526Z,999.7
2022-10-02T08:18:35.227Z,999.1
2022-10-02T08:19:29.581Z,999.5
2022-10-02T08:20:31.680Z,999.7
2022-10-02T08:21:34.457Z,999.6
2022-10-02T08:22:37.701Z,999.6
2022-10-02T08:23:41.036Z,999.6
2022-10-02T08:24:43.399Z,999.7
2022-10-02T08:25:45.578Z,999.6
2022-10-02T08:26:47.488Z,999.6
2022-10-02T08:27:50.687Z,999.5
2022-10-02T08:28:52.520Z,999.5
2022-10-02T08:29:54.900Z,999.5
2022-10-02T08:30:57.513Z,999.5
2022-10-02T08:32:00.581Z,999.4
2022-10-02T08:33:03.632Z,999.4
2022-10-02T08:34:06.511Z,999.4
2022-10-02T08:35:08.791Z,999.4
2022-10-02T08:36:12.160Z,999.4
2022-10-02T08:37:14.792Z,999.4
2022-10-02T08:38:17.873Z,999.3
2022-10-02T08:39:20.770Z,999.3
2022-10-02T08:40:23.592Z,999.2
2022-10-02T08:41:26.571Z,999.2
2022-10-02T08:42:29.694Z,999.1
2022-10-02T08:43:31.320Z,999.3
2022-10-02T08:44:36.413Z,999.3
2022-10-02T08:45:37.548Z,999.2
2022-10-02T08:46:39.645Z,999.2
2022-10-02T08:47:41.891Z,999.3
2022-10-02T08:48:44.531Z,999.3
2022-10-02T08:49:46.501Z,999.2
2022-10-02T08:50:49.751Z,999.3
2022-10-02T08:51:52.294Z,999.3
2022-10-02T08:52:55.732Z,999.3
2022-10-02T08:53:58.792Z,999.3
2022-10-02T08:55:01.412Z,999.2
2022-10-02T08:56:03.319Z,999.2
2022-10-02T08:57:05.532Z,999.3
2022-10-02T08:58:09.033Z,999.3
2022-10-02T08:59:11.499Z,999.3
2022-10-02T09:00:13.531Z,999.3
2022-10-02T09:01:17.000Z,999.3
2022-10-02T09:02:19.909Z,999.2
2022-10-02T09:03:22.571Z,999.2
2022-10-02T09:04:24.732Z,999.2
2022-10-02T09:05:27.832Z,999.2
2022-10-02T09:06:30.611Z,999.2
2022-10-02T09:07:33.636Z,999.2
2022-10-02T09:08:36.319Z,999.1
2022-10-02T09:09:38.615Z,999.1
2022-10-02T09:10:41.651Z,999
2022-10-02T09:11:45.016Z,999
2022-10-02T09:12:47.981Z,999
2022-10-02T09:13:50.631Z,999.1
2022-10-02T09:14:55.685Z,999.1
2022-10-02T09:15:56.556Z,999.1
2022-10-02T09:16:58.454Z,999
2022-10-02T09:18:00.691Z,999.1
2022-10-02T09:19:03.694Z,999
2022-10-02T09:20:06.957Z,999
2022-10-02T09:21:11.646Z,999
2022-10-02T09:22:12.271Z,998.9
2022-10-02T09:23:14.474Z,999
2022-10-02T09:24:17.051Z,999
2022-10-02T09:25:19.791Z,999
2022-10-02T09:26:22.691Z,999
2022-10-02T09:27:25.571Z,999
2022-10-02T09:28:27.838Z,999
2022-10-02T09:29:31.476Z,999.1
2022-10-02T09:30:34.591Z,999.1
2022-10-02T09:31:37.742Z,999
2022-10-02T09:32:40.720Z,999.1
2022-10-02T09:33:43.591Z,999.1
2022-10-02T09:34:46.960Z,999.1
2022-10-02T09:35:49.412Z,999.1
2022-10-02T09:36:51.351Z,999.1
2022-10-02T09:37:53.151Z,999.2
2022-10-02T09:38:55.425Z,999.1
2022-10-02T09:39:57.212Z,999
2022-10-02T09:40:59.332Z,999
2022-10-02T09:42:01.393Z,999
2022-10-02T09:43:04.722Z,999
2022-10-02T09:44:07.494Z,999
2022-10-02T09:45:10.376Z,999
2022-10-02T09:46:12.763Z,999
2022-10-02T09:47:15.551Z,999
2022-10-02T09:48:17.333Z,999.1
2022-10-02T09:49:19.336Z,999.1
2022-10-02T09:50:21.912Z,999
2022-10-02T09:51:24.490Z,999
2022-10-02T09:52:26.662Z,999.1
2022-10-02T09:53:28.695Z,999.2
2022-10-02T09:54:31.624Z,999.2
2022-10-02T09:55:33.572Z,999.2
2022-10-02T09:56:37.021Z,999.1
2022-10-02T09:57:39.772Z,999.1
2022-10-02T09:58:42.891Z,999.1
2022-10-02T09:59:45.706Z,999.1
2022-10-02T10:00:48.561Z,999
2022-10-02T10:01:50.514Z,999.1
2022-10-02T10:02:52.747Z,999.1
2022-10-02T10:03:56.051Z,999
2022-10-02T10:05:05.875Z,999
2022-10-02T10:06:00.731Z,999
2022-10-02T10:07:03.892Z,999
2022-10-02T10:08:06.580Z,999.1
2022-10-02T10:09:08.792Z,999.1
2022-10-02T10:10:11.789Z,999.1
2022-10-02T10:11:14.920Z,999.1
2022-10-02T10:12:17.453Z,999.2
2022-10-02T10:13:19.713Z,999.2
2022-10-02T10:14:21.718Z,999.1
2022-10-02T10:15:24.514Z,999.1
2022-10-02T10:16:27.570Z,999.1
2022-10-02T10:17:29.574Z,999.1
2022-10-02T10:18:32.073Z,998.9
2022-10-02T10:19:35.614Z,998.9
2022-10-02T10:20:38.731Z,998.9
2022-10-02T10:21:41.733Z,998.8
2022-10-02T10:22:43.794Z,998.8
2022-10-02T10:23:46.756Z,998.8
2022-10-02T10:24:49.673Z,998.8
2022-10-02T10:25:52.917Z,998.8
2022-10-02T10:26:55.519Z,998.8
2022-10-02T10:27:58.407Z,998.7
2022-10-02T10:29:00.559Z,998.7
2022-10-02T10:30:02.912Z,998.7
2022-10-02T10:31:06.054Z,998.6
2022-10-02T10:32:08.640Z,998.7
2022-10-02T10:33:11.452Z,998.7
2022-10-02T10:34:14.851Z,998.6
2022-10-02T10:35:18.151Z,998.6
2022-10-02T10:36:21.184Z,998.6
2022-10-02T10:37:23.887Z,998.6
2022-10-02T10:38:27.033Z,998.6
2022-10-02T10:39:29.932Z,998.6
2022-10-02T10:40:32.631Z,998.6
2022-10-02T10:41:35.102Z,998.5
2022-10-02T10:42:56.316Z,998.5
2022-10-02T10:43:41.171Z,998.6
2022-10-02T10:44:43.931Z,998.6
2022-10-02T10:45:46.820Z,998.6
2022-10-02T10:46:48.504Z,998.6
2022-10-02T10:47:51.494Z,998.5
2022-10-02T10:48:54.248Z,998.6
2022-10-02T10:49:56.679Z,998.6
2022-10-02T10:50:59.001Z,998.5
2022-10-02T10:52:01.666Z,998.5
2022-10-02T10:53:03.660Z,998.4
2022-10-02T10:54:06.638Z,998.6
2022-10-02T10:55:09.711Z,998.5
2022-10-02T10:56:12.831Z,998.5
2022-10-02T10:57:15.557Z,998.6
2022-10-02T10:58:17.833Z,998.5
2022-10-02T10:59:25.110Z,998.5
2022-10-02T11:00:23.851Z,998.4
2022-10-02T11:01:26.857Z,998.4
2022-10-02T11:02:29.703Z,998.4
2022-10-02T11:03:32.891Z,998.4
2022-10-02T11:04:35.603Z,998.4
2022-10-02T11:05:37.733Z,998.4
2022-10-02T11:06:45.310Z,998.4
2022-10-02T11:07:44.578Z,998.3
2022-10-02T11:08:47.111Z,998.3
2022-10-02T11:09:50.391Z,998.3
2022-10-02T11:10:52.564Z,998.3
2022-10-02T11:11:54.286Z,998.3
2022-10-02T11:12:56.523Z,998.4
2022-10-02T11:13:58.071Z,998.3
2022-10-02T11:14:59.111Z,998.4
2022-10-02T11:16:00.162Z,998.4
2022-10-02T11:17:01.132Z,998.4
2022-10-02T11:18:02.151Z,998.4
2022-10-02T11:19:03.131Z,998.4
2022-10-02T11:20:04.158Z,998.4
2022-10-02T11:21:05.157Z,998.4
2022-10-02T11:22:07.076Z,998.4
2022-10-02T11:23:09.112Z,998.3
2022-10-02T11:24:11.132Z,998.4
2022-10-02T11:25:13.230Z,998.4
2022-10-02T11:26:13.212Z,998.4
2022-10-02T11:27:15.140Z,998.3
2022-10-02T11:28:16.221Z,998.4
2022-10-02T11:29:17.171Z,998.3
2022-10-02T11:30:18.152Z,998.4
2022-10-02T11:31:19.213Z,998.3
2022-10-02T11:32:21.132Z,998.3
2022-10-02T11:33:23.130Z,998.4
2022-10-02T11:34:25.110Z,998.3
2022-10-02T11:35:27.173Z,998.3
2022-10-02T11:36:29.126Z,998.3
2022-10-02T11:37:31.153Z,998.3
2022-10-02T11:38:33.516Z,998.3
2022-10-02T11:39:35.132Z,998.4
2022-10-02T11:40:37.086Z,998.4
2022-10-02T11:41:38.467Z,998.4
2022-10-02T11:42:39.123Z,998.5
2022-10-02T11:43:44.010Z,998.5
2022-10-02T11:44:42.173Z,998.4
2022-10-02T11:45:44.370Z,998.3
2022-10-02T11:46:46.152Z,998.3
2022-10-02T11:47:47.100Z,998.4
2022-10-02T11:48:49.148Z,998.3
2022-10-02T11:49:51.212Z,998.3
2022-10-02T11:50:53.177Z,998.2
2022-10-02T11:51:55.332Z,998.3
2022-10-02T11:52:57.131Z,998.3
2022-10-02T11:53:58.091Z,998.3
2022-10-02T11:54:59.160Z,998.3
2022-10-02T11:56:01.217Z,998.3
2022-10-02T11:57:03.212Z,998.3
2022-10-02T11:58:05.053Z,998.3
2022-10-02T11:59:06.143Z,998.3
2022-10-02T12:00:07.164Z,998.1
2022-10-02T12:01:09.292Z,998.3
2022-10-02T12:02:14.486Z,998.3
2022-10-02T12:03:13.190Z,998.3
2022-10-02T12:04:14.124Z,998.4
2022-10-02T12:05:16.120Z,998.4
2022-10-02T12:06:17.193Z,998.4
2022-10-02T12:07:19.094Z,998.4
2022-10-02T12:08:20.173Z,998.4
2022-10-02T12:09:22.104Z,998.4
2022-10-02T12:10:24.294Z,998.4
2022-10-02T12:11:26.098Z,998.4
2022-10-02T12:12:28.054Z,998.5
2022-10-02T12:13:28.690Z,998.5
2022-10-02T12:14:30.184Z,998.4
2022-10-02T12:15:32.223Z,998.4
2022-10-02T12:16:33.205Z,998.4
2022-10-02T12:17:35.131Z,998.4
2022-10-02T12:18:37.212Z,998.5
2022-10-02T12:19:39.164Z,998.5
2022-10-02T12:20:41.209Z,998.5
2022-10-02T12:21:43.151Z,998.5
2022-10-02T12:22:44.059Z,998.5
2022-10-02T12:23:45.176Z,998.5
2022-10-02T12:24:46.161Z,998.5
2022-10-02T12:25:47.209Z,998.5
2022-10-02T12:26:49.138Z,998.5
2022-10-02T12:27:51.113Z,998.6
2022-10-02T12:28:53.128Z,998.5
2022-10-02T12:29:55.123Z,998.5
2022-10-02T12:30:56.215Z,998.6
2022-10-02T12:31:58.306Z,998.6
2022-10-02T12:33:00.127Z,998.6
2022-10-02T12:34:01.204Z,998.6
2022-10-02T12:35:02.233Z,998.6
2022-10-02T12:36:04.127Z,998.7
2022-10-02T12:37:05.537Z,998.7
2022-10-02T12:38:07.129Z,998.7
2022-10-02T12:39:08.163Z,998.7
2022-10-02T12:40:09.222Z,998.7
2022-10-02T12:41:10.160Z,998.7
2022-10-02T12:42:11.155Z,998.7
2022-10-02T12:43:12.159Z,998.7
2022-10-02T12:44:13.259Z,998.7
2022-10-02T12:45:15.413Z,998.7
2022-10-02T12:46:17.526Z,998.6
2022-10-02T12:47:19.398Z,998.6
2022-10-02T12:48:21.788Z,998.6
2022-10-02T12:49:24.780Z,998.6
2022-10-02T12:50:26.691Z,998.5
2022-10-02T12:51:29.717Z,998.5
2022-10-02T12:52:32.332Z,998.6
2022-10-02T12:53:34.991Z,998.6
2022-10-02T12:54:41.689Z,998.5
2022-10-02T12:55:44.433Z,998.5
2022-10-02T12:56:47.831Z,998.5
2022-10-02T12:57:50.946Z,998.6
2022-10-02T12:58:54.230Z,998.5
2022-10-02T12:59:58.531Z,997.9
2022-10-02T13:01:00.911Z,998.4
2022-10-02T13:02:03.257Z,998.4
2022-10-02T13:03:06.875Z,998.4
2022-10-02T13:04:12.188Z,998.4
2022-10-02T13:05:14.852Z,998.4
2022-10-02T13:06:16.394Z,998.3
2022-10-02T13:07:18.306Z,998.3
2022-10-02T13:08:21.280Z,998.3
2022-10-02T13:09:29.784Z,998.3
2022-10-02T13:10:29.352Z,998.3
2022-10-02T13:11:31.394Z,998.3
2022-10-02T13:12:33.394Z,998.3
2022-10-02T13:13:36.162Z,998.3
2022-10-02T13:14:39.388Z,998.4
2022-10-02T13:15:41.614Z,998.3
2022-10-02T13:16:43.506Z,998.4
2022-10-02T13:17:46.333Z,998.3
2022-10-02T13:18:48.359Z,998.2
2022-10-02T13:19:50.448Z,998.2
2022-10-02T13:20:52.595Z,998.2
2022-10-02T13:21:54.362Z,998.1
2022-10-02T13:22:56.552Z,998.1
2022-10-02T13:24:00.799Z,997.5
2022-10-02T13:25:04.686Z,998
2022-10-02T13:26:06.251Z,997.7
2022-10-02T13:27:08.371Z,997.9
2022-10-02T13:28:10.564Z,997.9
2022-10-02T13:29:15.381Z,998
2022-10-02T13:30:17.470Z,997.8
2022-10-02T13:31:19.347Z,997.7
2022-10-02T13:32:21.918Z,997.8
2022-10-02T13:33:24.431Z,997.8
2022-10-02T13:34:26.559Z,997.8
2022-10-02T13:35:28.758Z,997.7